sensor_id;sensor_type;location;lat;lon;timestamp;P1;durP1;ratioP1;P2;durP2;ratioP2
50056;SDS011;36875;49.468;11.200;2023-08-30T00:01:49;1.55;;;0.90;;
50056;SDS011;36875;49.468;11.200;2023-08-30T00:04:14;1.98;;;0.82;;
50056;SDS011;36875;49.468;11.200;2023-08-30T00:06:41;1.42;;;0.73;;
50056;SDS011;36875;49.468;11.200;2023-08-30T00:09:07;2.45;;;0.80;;
50056;SDS011;36875;49.468;11.200;2023-08-30T00:11:33;3.20;;;0.90;;
50056;SDS011;36875;49.468;11.200;2023-08-30T00:14:02;2.03;;;1.00;;
50056;SDS011;36875;49.468;11.200;2023-08-30T00:16:28;2.65;;;0.95;;
50056;SDS011;36875;49.468;11.200;2023-08-30T00:18:53;2.50;;;1.20;;
50056;SDS011;36875;49.468;11.200;2023-08-30T00:21:19;1.50;;;0.90;;
50056;SDS011;36875;49.468;11.200;2023-08-30T00:23:47;2.95;;;0.93;;
50056;SDS011;36875;49.468;11.200;2023-08-30T00:26:12;1.67;;;0.73;;
50056;SDS011;36875;49.468;11.200;2023-08-30T00:28:38;1.40;;;0.80;;
50056;SDS011;36875;49.468;11.200;2023-08-30T00:31:03;0.77;;;0.68;;
50056;SDS011;36875;49.468;11.200;2023-08-30T00:33:29;2.15;;;0.80;;
50056;SDS011;36875;49.468;11.200;2023-08-30T00:35:55;3.10;;;1.00;;
50056;SDS011;36875;49.468;11.200;2023-08-30T00:38:21;1.50;;;0.85;;
50056;SDS011;36875;49.468;11.200;2023-08-30T00:40:48;2.97;;;0.80;;
50056;SDS011;36875;49.468;11.200;2023-08-30T00:43:14;1.15;;;0.63;;
50056;SDS011;36875;49.468;11.200;2023-08-30T00:45:39;2.60;;;1.00;;
50056;SDS011;36875;49.468;11.200;2023-08-30T00:48:05;1.95;;;0.88;;
50056;SDS011;36875;49.468;11.200;2023-08-30T00:50:31;1.38;;;0.80;;
50056;SDS011;36875;49.468;11.200;2023-08-30T00:52:57;1.05;;;0.70;;
50056;SDS011;36875;49.468;11.200;2023-08-30T00:55:23;2.20;;;0.65;;
50056;SDS011;36875;49.468;11.200;2023-08-30T00:57:50;3.03;;;0.90;;
50056;SDS011;36875;49.468;11.200;2023-08-30T01:00:16;2.95;;;1.40;;
50056;SDS011;36875;49.468;11.200;2023-08-30T01:02:42;2.63;;;0.93;;
50056;SDS011;36875;49.468;11.200;2023-08-30T01:05:08;1.73;;;0.82;;
50056;SDS011;36875;49.468;11.200;2023-08-30T01:07:34;1.75;;;0.90;;
50056;SDS011;36875;49.468;11.200;2023-08-30T01:09:59;1.00;;;0.65;;
50056;SDS011;36875;49.468;11.200;2023-08-30T01:12:27;2.50;;;1.00;;
50056;SDS011;36875;49.468;11.200;2023-08-30T01:15:00;1.08;;;0.68;;
50056;SDS011;36875;49.468;11.200;2023-08-30T01:17:32;1.20;;;0.75;;
50056;SDS011;36875;49.468;11.200;2023-08-30T01:20:00;2.90;;;1.08;;
50056;SDS011;36875;49.468;11.200;2023-08-30T01:25:09;1.42;;;0.90;;
50056;SDS011;36875;49.468;11.200;2023-08-30T01:27:42;1.52;;;0.80;;
50056;SDS011;36875;49.468;11.200;2023-08-30T01:30:10;1.75;;;0.88;;
50056;SDS011;36875;49.468;11.200;2023-08-30T01:32:38;1.00;;;0.88;;
50056;SDS011;36875;49.468;11.200;2023-08-30T01:35:05;2.20;;;0.90;;
50056;SDS011;36875;49.468;11.200;2023-08-30T01:37:32;2.15;;;0.85;;
50056;SDS011;36875;49.468;11.200;2023-08-30T01:39:58;2.35;;;1.10;;
50056;SDS011;36875;49.468;11.200;2023-08-30T01:42:24;2.30;;;0.93;;
50056;SDS011;36875;49.468;11.200;2023-08-30T01:44:53;2.03;;;0.98;;
50056;SDS011;36875;49.468;11.200;2023-08-30T01:47:22;1.77;;;0.85;;
50056;SDS011;36875;49.468;11.200;2023-08-30T01:49:50;2.03;;;1.35;;
50056;SDS011;36875;49.468;11.200;2023-08-30T01:52:16;1.45;;;0.98;;
50056;SDS011;36875;49.468;11.200;2023-08-30T01:54:43;1.83;;;1.00;;
50056;SDS011;36875;49.468;11.200;2023-08-30T01:57:10;1.48;;;0.80;;
50056;SDS011;36875;49.468;11.200;2023-08-30T01:59:35;1.75;;;0.80;;
50056;SDS011;36875;49.468;11.200;2023-08-30T02:02:02;1.60;;;0.75;;
50056;SDS011;36875;49.468;11.200;2023-08-30T02:04:29;1.10;;;0.80;;
50056;SDS011;36875;49.468;11.200;2023-08-30T02:06:56;2.13;;;0.82;;
50056;SDS011;36875;49.468;11.200;2023-08-30T02:09:27;1.52;;;0.93;;
50056;SDS011;36875;49.468;11.200;2023-08-30T02:11:57;1.27;;;0.77;;
50056;SDS011;36875;49.468;11.200;2023-08-30T02:14:29;2.00;;;1.10;;
50056;SDS011;36875;49.468;11.200;2023-08-30T02:16:57;1.90;;;1.00;;
50056;SDS011;36875;49.468;11.200;2023-08-30T02:19:24;1.95;;;1.00;;
50056;SDS011;36875;49.468;11.200;2023-08-30T02:21:50;1.35;;;0.95;;
50056;SDS011;36875;49.468;11.200;2023-08-30T02:24:16;1.15;;;0.70;;
50056;SDS011;36875;49.468;11.200;2023-08-30T02:26:41;3.15;;;1.00;;
50056;SDS011;36875;49.468;11.200;2023-08-30T02:29:07;2.42;;;0.90;;
50056;SDS011;36875;49.468;11.200;2023-08-30T02:31:33;2.88;;;0.90;;
50056;SDS011;36875;49.468;11.200;2023-08-30T02:33:58;1.40;;;1.00;;
50056;SDS011;36875;49.468;11.200;2023-08-30T02:36:25;2.33;;;0.85;;
50056;SDS011;36875;49.468;11.200;2023-08-30T02:38:51;1.45;;;0.85;;
50056;SDS011;36875;49.468;11.200;2023-08-30T02:41:16;1.77;;;1.10;;
50056;SDS011;36875;49.468;11.200;2023-08-30T02:43:42;1.20;;;0.80;;
50056;SDS011;36875;49.468;11.200;2023-08-30T02:46:07;2.13;;;1.15;;
50056;SDS011;36875;49.468;11.200;2023-08-30T02:48:33;0.95;;;0.75;;
50056;SDS011;36875;49.468;11.200;2023-08-30T02:50:58;2.10;;;1.02;;
50056;SDS011;36875;49.468;11.200;2023-08-30T02:53:25;1.85;;;0.88;;
50056;SDS011;36875;49.468;11.200;2023-08-30T02:55:51;1.83;;;0.80;;
50056;SDS011;36875;49.468;11.200;2023-08-30T02:58:16;1.30;;;0.90;;
50056;SDS011;36875;49.468;11.200;2023-08-30T03:00:42;1.23;;;0.70;;
50056;SDS011;36875;49.468;11.200;2023-08-30T03:03:07;2.17;;;1.20;;
50056;SDS011;36875;49.468;11.200;2023-08-30T03:05:33;1.45;;;1.00;;
50056;SDS011;36875;49.468;11.200;2023-08-30T03:07:58;1.40;;;0.90;;
50056;SDS011;36875;49.468;11.200;2023-08-30T03:10:25;2.65;;;1.05;;
50056;SDS011;36875;49.468;11.200;2023-08-30T03:12:51;1.80;;;1.05;;
50056;SDS011;36875;49.468;11.200;2023-08-30T03:15:16;1.15;;;0.90;;
50056;SDS011;36875;49.468;11.200;2023-08-30T03:17:42;1.52;;;1.00;;
50056;SDS011;36875;49.468;11.200;2023-08-30T03:20:08;1.50;;;0.95;;
50056;SDS011;36875;49.468;11.200;2023-08-30T03:22:33;1.33;;;0.70;;
50056;SDS011;36875;49.468;11.200;2023-08-30T03:24:59;2.20;;;0.95;;
50056;SDS011;36875;49.468;11.200;2023-08-30T03:27:29;0.95;;;0.82;;
50056;SDS011;36875;49.468;11.200;2023-08-30T03:29:54;2.17;;;0.90;;
50056;SDS011;36875;49.468;11.200;2023-08-30T03:32:20;2.42;;;1.20;;
50056;SDS011;36875;49.468;11.200;2023-08-30T03:34:45;0.85;;;0.75;;
50056;SDS011;36875;49.468;11.200;2023-08-30T03:37:11;1.95;;;1.00;;
50056;SDS011;36875;49.468;11.200;2023-08-30T03:39:37;1.35;;;0.90;;
50056;SDS011;36875;49.468;11.200;2023-08-30T03:42:02;1.38;;;0.88;;
50056;SDS011;36875;49.468;11.200;2023-08-30T03:44:30;1.27;;;0.88;;
50056;SDS011;36875;49.468;11.200;2023-08-30T03:46:55;1.48;;;1.00;;
50056;SDS011;36875;49.468;11.200;2023-08-30T03:49:21;1.10;;;0.80;;
50056;SDS011;36875;49.468;11.200;2023-08-30T03:51:47;0.90;;;0.75;;
50056;SDS011;36875;49.468;11.200;2023-08-30T03:54:13;3.50;;;0.90;;
50056;SDS011;36875;49.468;11.200;2023-08-30T03:56:41;1.02;;;0.70;;
50056;SDS011;36875;49.468;11.200;2023-08-30T03:59:06;1.40;;;0.80;;
50056;SDS011;36875;49.468;11.200;2023-08-30T04:01:34;2.72;;;1.10;;
50056;SDS011;36875;49.468;11.200;2023-08-30T04:03:59;1.77;;;0.80;;
50056;SDS011;36875;49.468;11.200;2023-08-30T04:06:25;1.30;;;0.85;;
50056;SDS011;36875;49.468;11.200;2023-08-30T04:08:50;1.20;;;0.88;;
50056;SDS011;36875;49.468;11.200;2023-08-30T04:11:16;0.98;;;0.80;;
50056;SDS011;36875;49.468;11.200;2023-08-30T04:13:41;1.60;;;0.88;;
50056;SDS011;36875;49.468;11.200;2023-08-30T04:16:07;2.47;;;1.00;;
50056;SDS011;36875;49.468;11.200;2023-08-30T04:18:33;1.95;;;0.93;;
50056;SDS011;36875;49.468;11.200;2023-08-30T04:20:59;0.75;;;0.73;;
50056;SDS011;36875;49.468;11.200;2023-08-30T04:23:27;1.52;;;0.95;;
50056;SDS011;36875;49.468;11.200;2023-08-30T04:25:52;2.17;;;0.80;;
50056;SDS011;36875;49.468;11.200;2023-08-30T04:28:18;0.95;;;0.80;;
50056;SDS011;36875;49.468;11.200;2023-08-30T04:30:43;1.13;;;0.90;;
50056;SDS011;36875;49.468;11.200;2023-08-30T04:33:09;1.50;;;0.80;;
50056;SDS011;36875;49.468;11.200;2023-08-30T04:35:36;2.25;;;0.80;;
50056;SDS011;36875;49.468;11.200;2023-08-30T04:38:01;1.08;;;0.85;;
50056;SDS011;36875;49.468;11.200;2023-08-30T04:40:28;0.95;;;0.82;;
50056;SDS011;36875;49.468;11.200;2023-08-30T04:42:55;1.50;;;0.90;;
50056;SDS011;36875;49.468;11.200;2023-08-30T04:45:20;2.17;;;1.02;;
50056;SDS011;36875;49.468;11.200;2023-08-30T04:47:46;2.95;;;0.70;;
50056;SDS011;36875;49.468;11.200;2023-08-30T04:50:11;1.95;;;1.10;;
50056;SDS011;36875;49.468;11.200;2023-08-30T04:52:38;1.38;;;0.85;;
50056;SDS011;36875;49.468;11.200;2023-08-30T04:55:04;1.88;;;1.00;;
50056;SDS011;36875;49.468;11.200;2023-08-30T04:57:30;1.70;;;0.85;;
50056;SDS011;36875;49.468;11.200;2023-08-30T04:59:56;1.73;;;1.00;;
50056;SDS011;36875;49.468;11.200;2023-08-30T05:02:22;1.48;;;0.73;;
50056;SDS011;36875;49.468;11.200;2023-08-30T05:04:47;1.95;;;0.90;;
50056;SDS011;36875;49.468;11.200;2023-08-30T05:07:13;1.98;;;0.80;;
50056;SDS011;36875;49.468;11.200;2023-08-30T05:09:40;1.52;;;0.68;;
50056;SDS011;36875;49.468;11.200;2023-08-30T05:12:05;2.17;;;1.33;;
50056;SDS011;36875;49.468;11.200;2023-08-30T05:14:31;2.08;;;0.90;;
50056;SDS011;36875;49.468;11.200;2023-08-30T05:16:57;0.90;;;0.77;;
50056;SDS011;36875;49.468;11.200;2023-08-30T05:19:22;0.98;;;0.60;;
50056;SDS011;36875;49.468;11.200;2023-08-30T05:21:48;2.10;;;0.90;;
50056;SDS011;36875;49.468;11.200;2023-08-30T05:24:19;1.67;;;0.90;;
50056;SDS011;36875;49.468;11.200;2023-08-30T05:26:46;0.98;;;0.80;;
50056;SDS011;36875;49.468;11.200;2023-08-30T05:29:13;2.10;;;0.93;;
50056;SDS011;36875;49.468;11.200;2023-08-30T05:31:39;1.15;;;1.00;;
50056;SDS011;36875;49.468;11.200;2023-08-30T05:34:04;1.20;;;0.90;;
50056;SDS011;36875;49.468;11.200;2023-08-30T05:36:30;1.63;;;1.00;;
50056;SDS011;36875;49.468;11.200;2023-08-30T05:38:55;0.73;;;0.73;;
50056;SDS011;36875;49.468;11.200;2023-08-30T05:41:21;1.02;;;0.80;;
50056;SDS011;36875;49.468;11.200;2023-08-30T05:43:47;1.65;;;1.00;;
50056;SDS011;36875;49.468;11.200;2023-08-30T05:46:13;0.82;;;0.70;;
50056;SDS011;36875;49.468;11.200;2023-08-30T05:48:40;1.52;;;1.00;;
50056;SDS011;36875;49.468;11.200;2023-08-30T05:51:06;2.47;;;1.00;;
50056;SDS011;36875;49.468;11.200;2023-08-30T05:53:31;1.55;;;0.85;;
50056;SDS011;36875;49.468;11.200;2023-08-30T05:55:57;1.15;;;0.90;;
50056;SDS011;36875;49.468;11.200;2023-08-30T05:58:22;2.20;;;0.77;;
50056;SDS011;36875;49.468;11.200;2023-08-30T06:00:49;0.80;;;0.80;;
50056;SDS011;36875;49.468;11.200;2023-08-30T06:03:15;0.73;;;0.70;;
50056;SDS011;36875;49.468;11.200;2023-08-30T06:05:40;1.15;;;0.80;;
50056;SDS011;36875;49.468;11.200;2023-08-30T06:08:08;1.27;;;1.00;;
50056;SDS011;36875;49.468;11.200;2023-08-30T06:10:33;1.75;;;1.05;;
50056;SDS011;36875;49.468;11.200;2023-08-30T06:12:59;1.40;;;0.85;;
50056;SDS011;36875;49.468;11.200;2023-08-30T06:15:25;0.85;;;0.80;;
50056;SDS011;36875;49.468;11.200;2023-08-30T06:17:52;1.60;;;0.90;;
50056;SDS011;36875;49.468;11.200;2023-08-30T06:20:18;1.20;;;0.90;;
50056;SDS011;36875;49.468;11.200;2023-08-30T06:22:44;2.75;;;0.95;;
50056;SDS011;36875;49.468;11.200;2023-08-30T06:25:10;2.13;;;0.98;;
50056;SDS011;36875;49.468;11.200;2023-08-30T06:27:40;1.65;;;1.00;;
50056;SDS011;36875;49.468;11.200;2023-08-30T06:30:07;2.88;;;1.10;;
50056;SDS011;36875;49.468;11.200;2023-08-30T06:32:33;2.80;;;1.20;;
50056;SDS011;36875;49.468;11.200;2023-08-30T06:35:00;1.95;;;1.00;;
50056;SDS011;36875;49.468;11.200;2023-08-30T06:37:26;2.60;;;1.00;;
50056;SDS011;36875;49.468;11.200;2023-08-30T06:39:51;1.77;;;1.00;;
50056;SDS011;36875;49.468;11.200;2023-08-30T06:42:17;2.47;;;1.25;;
50056;SDS011;36875;49.468;11.200;2023-08-30T06:44:42;1.98;;;1.20;;
50056;SDS011;36875;49.468;11.200;2023-08-30T06:47:08;2.53;;;0.93;;
50056;SDS011;36875;49.468;11.200;2023-08-30T06:49:33;1.88;;;1.27;;
50056;SDS011;36875;49.468;11.200;2023-08-30T06:52:00;2.50;;;1.30;;
50056;SDS011;36875;49.468;11.200;2023-08-30T06:54:28;2.45;;;1.10;;
50056;SDS011;36875;49.468;11.200;2023-08-30T06:56:58;3.58;;;1.30;;
50056;SDS011;36875;49.468;11.200;2023-08-30T06:59:24;3.67;;;1.40;;
50056;SDS011;36875;49.468;11.200;2023-08-30T07:01:50;6.60;;;1.38;;
50056;SDS011;36875;49.468;11.200;2023-08-30T07:04:15;2.90;;;1.50;;
50056;SDS011;36875;49.468;11.200;2023-08-30T07:06:41;4.85;;;1.75;;
50056;SDS011;36875;49.468;11.200;2023-08-30T07:09:08;8.10;;;2.25;;
50056;SDS011;36875;49.468;11.200;2023-08-30T07:11:33;4.53;;;2.25;;
50056;SDS011;36875;49.468;11.200;2023-08-30T07:13:59;8.02;;;2.03;;
50056;SDS011;36875;49.468;11.200;2023-08-30T07:16:24;5.22;;;1.70;;
50056;SDS011;36875;49.468;11.200;2023-08-30T07:18:50;5.38;;;2.10;;
50056;SDS011;36875;49.468;11.200;2023-08-30T07:21:15;3.70;;;1.90;;
50056;SDS011;36875;49.468;11.200;2023-08-30T07:23:41;6.53;;;2.38;;
50056;SDS011;36875;49.468;11.200;2023-08-30T07:26:08;6.88;;;4.32;;
50056;SDS011;36875;49.468;11.200;2023-08-30T07:28:34;8.07;;;4.30;;
50056;SDS011;36875;49.468;11.200;2023-08-30T07:31:02;7.07;;;4.18;;
50056;SDS011;36875;49.468;11.200;2023-08-30T07:33:28;7.80;;;4.20;;
50056;SDS011;36875;49.468;11.200;2023-08-30T07:35:54;5.53;;;3.90;;
50056;SDS011;36875;49.468;11.200;2023-08-30T07:38:19;6.43;;;4.38;;
50056;SDS011;36875;49.468;11.200;2023-08-30T07:40:45;7.03;;;4.22;;
50056;SDS011;36875;49.468;11.200;2023-08-30T07:43:11;5.70;;;3.60;;
50056;SDS011;36875;49.468;11.200;2023-08-30T07:45:37;7.93;;;3.40;;
50056;SDS011;36875;49.468;11.200;2023-08-30T07:48:03;6.40;;;4.10;;
50056;SDS011;36875;49.468;11.200;2023-08-30T07:50:29;8.18;;;3.97;;
50056;SDS011;36875;49.468;11.200;2023-08-30T07:52:54;8.80;;;4.20;;
50056;SDS011;36875;49.468;11.200;2023-08-30T07:55:19;5.90;;;3.65;;
50056;SDS011;36875;49.468;11.200;2023-08-30T07:57:45;6.25;;;3.70;;
50056;SDS011;36875;49.468;11.200;2023-08-30T08:00:13;6.05;;;3.58;;
50056;SDS011;36875;49.468;11.200;2023-08-30T08:02:39;5.70;;;3.75;;
50056;SDS011;36875;49.468;11.200;2023-08-30T08:05:05;6.88;;;3.67;;
50056;SDS011;36875;49.468;11.200;2023-08-30T08:07:30;7.18;;;3.85;;
50056;SDS011;36875;49.468;11.200;2023-08-30T08:09:56;6.93;;;3.80;;
50056;SDS011;36875;49.468;11.200;2023-08-30T08:12:22;6.65;;;3.88;;
50056;SDS011;36875;49.468;11.200;2023-08-30T08:14:47;6.88;;;4.07;;
50056;SDS011;36875;49.468;11.200;2023-08-30T08:17:14;5.32;;;3.65;;
50056;SDS011;36875;49.468;11.200;2023-08-30T08:19:40;7.00;;;3.67;;
50056;SDS011;36875;49.468;11.200;2023-08-30T08:22:08;9.45;;;4.10;;
50056;SDS011;36875;49.468;11.200;2023-08-30T08:24:33;8.00;;;3.70;;
50056;SDS011;36875;49.468;11.200;2023-08-30T08:26:59;7.07;;;3.47;;
50056;SDS011;36875;49.468;11.200;2023-08-30T08:29:26;7.35;;;3.90;;
50056;SDS011;36875;49.468;11.200;2023-08-30T08:31:51;5.35;;;3.40;;
50056;SDS011;36875;49.468;11.200;2023-08-30T08:34:18;7.72;;;3.80;;
50056;SDS011;36875;49.468;11.200;2023-08-30T08:36:44;7.40;;;3.55;;
50056;SDS011;36875;49.468;11.200;2023-08-30T08:39:09;6.65;;;3.95;;
50056;SDS011;36875;49.468;11.200;2023-08-30T08:41:35;7.55;;;3.45;;
50056;SDS011;36875;49.468;11.200;2023-08-30T08:44:04;7.88;;;3.70;;
50056;SDS011;36875;49.468;11.200;2023-08-30T08:46:31;5.40;;;3.90;;
50056;SDS011;36875;49.468;11.200;2023-08-30T08:48:59;8.05;;;3.60;;
50056;SDS011;36875;49.468;11.200;2023-08-30T08:51:31;9.95;;;3.65;;
50056;SDS011;36875;49.468;11.200;2023-08-30T08:54:01;13.25;;;4.10;;
50056;SDS011;36875;49.468;11.200;2023-08-30T08:56:28;8.02;;;3.50;;
50056;SDS011;36875;49.468;11.200;2023-08-30T08:58:54;8.43;;;3.60;;
50056;SDS011;36875;49.468;11.200;2023-08-30T09:01:20;11.25;;;3.97;;
50056;SDS011;36875;49.468;11.200;2023-08-30T09:03:46;10.93;;;3.70;;
50056;SDS011;36875;49.468;11.200;2023-08-30T09:06:11;10.30;;;3.90;;
50056;SDS011;36875;49.468;11.200;2023-08-30T09:08:39;19.92;;;4.78;;
50056;SDS011;36875;49.468;11.200;2023-08-30T09:11:04;15.05;;;4.05;;
50056;SDS011;36875;49.468;11.200;2023-08-30T09:13:30;17.58;;;4.18;;
50056;SDS011;36875;49.468;11.200;2023-08-30T09:15:56;15.55;;;4.18;;
50056;SDS011;36875;49.468;11.200;2023-08-30T09:18:21;7.03;;;3.75;;
50056;SDS011;36875;49.468;11.200;2023-08-30T09:23:17;11.77;;;4.28;;
50056;SDS011;36875;49.468;11.200;2023-08-30T11:58:38;5.97;;;3.30;;
50056;SDS011;36875;49.468;11.200;2023-08-30T12:01:04;8.75;;;3.35;;
50056;SDS011;36875;49.468;11.200;2023-08-30T12:03:30;6.45;;;3.08;;
50056;SDS011;36875;49.468;11.200;2023-08-30T12:24:04;9.65;;;3.83;;
50056;SDS011;36875;49.468;11.200;2023-08-30T12:26:31;10.45;;;3.60;;
50056;SDS011;36875;49.468;11.200;2023-08-30T12:28:58;8.75;;;3.75;;
50056;SDS011;36875;49.468;11.200;2023-08-30T12:31:23;12.10;;;4.05;;
50056;SDS011;36875;49.468;11.200;2023-08-30T17:18:17;5.82;;;2.80;;
50056;SDS011;36875;49.468;11.200;2023-08-30T17:20:43;13.85;;;3.63;;
50056;SDS011;36875;49.468;11.200;2023-08-30T17:23:08;10.80;;;3.15;;
50056;SDS011;36875;49.468;11.200;2023-08-30T17:51:27;7.50;;;2.60;;
50056;SDS011;36875;49.468;11.200;2023-08-30T19:03:43;3.20;;;2.33;;
50056;SDS011;36875;49.468;11.200;2023-08-30T19:09:29;3.50;;;2.13;;
50056;SDS011;36875;49.468;11.200;2023-08-30T19:11:56;4.50;;;2.30;;
50056;SDS011;36875;49.468;11.200;2023-08-30T19:14:21;4.07;;;2.00;;
50056;SDS011;36875;49.468;11.200;2023-08-30T19:16:47;4.13;;;2.13;;
50056;SDS011;36875;49.468;11.200;2023-08-30T19:19:14;3.22;;;2.00;;
50056;SDS011;36875;49.468;11.200;2023-08-30T19:21:40;6.22;;;2.30;;
50056;SDS011;36875;49.468;11.200;2023-08-30T19:24:06;4.13;;;2.10;;
50056;SDS011;36875;49.468;11.200;2023-08-30T19:26:31;3.15;;;2.00;;
50056;SDS011;36875;49.468;11.200;2023-08-30T19:28:57;5.13;;;2.38;;
50056;SDS011;36875;49.468;11.200;2023-08-30T19:31:22;7.18;;;2.50;;
50056;SDS011;36875;49.468;11.200;2023-08-30T19:33:49;5.25;;;2.70;;
50056;SDS011;36875;49.468;11.200;2023-08-30T19:36:16;5.72;;;2.55;;
50056;SDS011;36875;49.468;11.200;2023-08-30T19:38:43;7.20;;;2.10;;
50056;SDS011;36875;49.468;11.200;2023-08-30T19:41:09;8.77;;;2.28;;
50056;SDS011;36875;49.468;11.200;2023-08-30T19:43:34;6.93;;;2.55;;
50056;SDS011;36875;49.468;11.200;2023-08-30T19:46:00;8.90;;;2.50;;
50056;SDS011;36875;49.468;11.200;2023-08-30T19:48:27;7.05;;;2.72;;
50056;SDS011;36875;49.468;11.200;2023-08-30T19:50:53;6.82;;;2.30;;
50056;SDS011;36875;49.468;11.200;2023-08-30T19:53:20;4.80;;;2.33;;
50056;SDS011;36875;49.468;11.200;2023-08-30T19:55:45;6.63;;;2.25;;
50056;SDS011;36875;49.468;11.200;2023-08-30T19:58:15;5.95;;;2.65;;
50056;SDS011;36875;49.468;11.200;2023-08-30T20:00:41;6.45;;;2.20;;
50056;SDS011;36875;49.468;11.200;2023-08-30T20:03:07;4.07;;;2.08;;
50056;SDS011;36875;49.468;11.200;2023-08-30T20:05:33;5.35;;;2.47;;
50056;SDS011;36875;49.468;11.200;2023-08-30T20:08:00;6.18;;;2.60;;
50056;SDS011;36875;49.468;11.200;2023-08-30T20:10:27;4.68;;;2.20;;
50056;SDS011;36875;49.468;11.200;2023-08-30T20:12:52;4.15;;;2.00;;
50056;SDS011;36875;49.468;11.200;2023-08-30T20:17:53;5.78;;;2.03;;
50056;SDS011;36875;49.468;11.200;2023-08-30T20:20:19;4.72;;;2.00;;
50056;SDS011;36875;49.468;11.200;2023-08-30T20:22:45;7.18;;;2.40;;
50056;SDS011;36875;49.468;11.200;2023-08-30T20:56:14;3.33;;;2.08;;
50056;SDS011;36875;49.468;11.200;2023-08-30T20:58:41;4.78;;;2.40;;
50056;SDS011;36875;49.468;11.200;2023-08-30T21:01:14;4.07;;;2.10;;
50056;SDS011;36875;49.468;11.200;2023-08-30T21:03:40;3.95;;;1.92;;
50056;SDS011;36875;49.468;11.200;2023-08-30T21:06:06;5.05;;;2.03;;
50056;SDS011;36875;49.468;11.200;2023-08-30T21:08:34;3.20;;;1.90;;
50056;SDS011;36875;49.468;11.200;2023-08-30T21:11:00;2.97;;;1.80;;
50056;SDS011;36875;49.468;11.200;2023-08-30T21:13:27;4.60;;;2.30;;
50056;SDS011;36875;49.468;11.200;2023-08-30T21:15:53;3.03;;;2.10;;
50056;SDS011;36875;49.468;11.200;2023-08-30T21:18:18;4.80;;;1.90;;
50056;SDS011;36875;49.468;11.200;2023-08-30T21:20:44;3.92;;;1.73;;
50056;SDS011;36875;49.468;11.200;2023-08-30T21:23:10;4.10;;;1.90;;
50056;SDS011;36875;49.468;11.200;2023-08-30T21:25:36;4.13;;;1.90;;
50056;SDS011;36875;49.468;11.200;2023-08-30T21:28:02;2.38;;;1.80;;
50056;SDS011;36875;49.468;11.200;2023-08-30T21:30:29;4.97;;;1.90;;
50056;SDS011;36875;49.468;11.200;2023-08-30T21:32:55;3.08;;;1.80;;
50056;SDS011;36875;49.468;11.200;2023-08-30T21:35:20;4.70;;;1.77;;
50056;SDS011;36875;49.468;11.200;2023-08-30T21:37:46;4.70;;;2.00;;
50056;SDS011;36875;49.468;11.200;2023-08-30T21:40:12;4.47;;;1.90;;
50056;SDS011;36875;49.468;11.200;2023-08-30T21:42:37;4.13;;;1.90;;
50056;SDS011;36875;49.468;11.200;2023-08-30T21:45:04;3.10;;;1.88;;
50056;SDS011;36875;49.468;11.200;2023-08-30T21:47:32;6.50;;;2.00;;
50056;SDS011;36875;49.468;11.200;2023-08-30T21:49:58;4.13;;;1.95;;
50056;SDS011;36875;49.468;11.200;2023-08-30T21:52:26;2.67;;;1.67;;
50056;SDS011;36875;49.468;11.200;2023-08-30T21:54:51;4.50;;;1.98;;
50056;SDS011;36875;49.468;11.200;2023-08-30T21:57:17;3.03;;;1.92;;
50056;SDS011;36875;49.468;11.200;2023-08-30T21:59:42;3.42;;;2.13;;
50056;SDS011;36875;49.468;11.200;2023-08-30T22:02:08;5.32;;;2.05;;
50056;SDS011;36875;49.468;11.200;2023-08-30T22:04:35;4.63;;;2.05;;
50056;SDS011;36875;49.468;11.200;2023-08-30T22:07:02;2.30;;;1.73;;
50056;SDS011;36875;49.468;11.200;2023-08-30T22:09:31;4.75;;;2.10;;
50056;SDS011;36875;49.468;11.200;2023-08-30T22:11:56;4.05;;;2.03;;
50056;SDS011;36875;49.468;11.200;2023-08-30T22:14:22;4.20;;;2.13;;
50056;SDS011;36875;49.468;11.200;2023-08-30T22:16:47;4.57;;;1.98;;
50056;SDS011;36875;49.468;11.200;2023-08-30T22:19:13;3.85;;;2.10;;
50056;SDS011;36875;49.468;11.200;2023-08-30T22:21:40;2.90;;;1.75;;
50056;SDS011;36875;49.468;11.200;2023-08-30T22:24:05;4.35;;;1.95;;
50056;SDS011;36875;49.468;11.200;2023-08-30T22:26:31;4.85;;;1.80;;
50056;SDS011;36875;49.468;11.200;2023-08-30T22:28:57;3.20;;;2.10;;
50056;SDS011;36875;49.468;11.200;2023-08-30T22:31:23;2.97;;;2.10;;
50056;SDS011;36875;49.468;11.200;2023-08-30T22:33:49;3.42;;;1.85;;
50056;SDS011;36875;49.468;11.200;2023-08-30T22:36:15;3.45;;;1.90;;
50056;SDS011;36875;49.468;11.200;2023-08-30T22:38:42;3.75;;;1.83;;
50056;SDS011;36875;49.468;11.200;2023-08-30T22:41:07;3.72;;;2.00;;
50056;SDS011;36875;49.468;11.200;2023-08-30T22:43:32;2.80;;;1.80;;
50056;SDS011;36875;49.468;11.200;2023-08-30T22:45:59;3.88;;;1.58;;
50056;SDS011;36875;49.468;11.200;2023-08-30T22:48:25;2.60;;;1.75;;
50056;SDS011;36875;49.468;11.200;2023-08-30T22:50:51;4.20;;;1.85;;
50056;SDS011;36875;49.468;11.200;2023-08-30T22:53:17;4.07;;;1.95;;
50056;SDS011;36875;49.468;11.200;2023-08-30T22:55:44;3.38;;;2.03;;
50056;SDS011;36875;49.468;11.200;2023-08-30T22:58:09;4.40;;;1.80;;
50056;SDS011;36875;49.468;11.200;2023-08-30T23:00:36;3.08;;;1.80;;
50056;SDS011;36875;49.468;11.200;2023-08-30T23:03:01;3.10;;;1.83;;
50056;SDS011;36875;49.468;11.200;2023-08-30T23:05:29;2.60;;;1.80;;
50056;SDS011;36875;49.468;11.200;2023-08-30T23:07:55;4.38;;;1.70;;
50056;SDS011;36875;49.468;11.200;2023-08-30T23:10:21;2.20;;;1.50;;
50056;SDS011;36875;49.468;11.200;2023-08-30T23:12:51;2.88;;;1.77;;
50056;SDS011;36875;49.468;11.200;2023-08-30T23:15:17;4.13;;;1.95;;
50056;SDS011;36875;49.468;11.200;2023-08-30T23:17:44;3.25;;;1.80;;
50056;SDS011;36875;49.468;11.200;2023-08-30T23:20:10;3.22;;;1.80;;
50056;SDS011;36875;49.468;11.200;2023-08-30T23:22:37;3.10;;;1.88;;
50056;SDS011;36875;49.468;11.200;2023-08-30T23:25:02;4.50;;;2.20;;
50056;SDS011;36875;49.468;11.200;2023-08-30T23:27:28;2.63;;;1.90;;
50056;SDS011;36875;49.468;11.200;2023-08-30T23:29:55;2.53;;;1.65;;
50056;SDS011;36875;49.468;11.200;2023-08-30T23:32:21;3.45;;;1.92;;
50056;SDS011;36875;49.468;11.200;2023-08-30T23:34:46;3.60;;;1.77;;
50056;SDS011;36875;49.468;11.200;2023-08-30T23:37:12;2.60;;;1.98;;
50056;SDS011;36875;49.468;11.200;2023-08-30T23:39:37;2.08;;;1.80;;
50056;SDS011;36875;49.468;11.200;2023-08-30T23:42:02;1.98;;;1.60;;
50056;SDS011;36875;49.468;11.200;2023-08-30T23:44:29;2.60;;;1.65;;
50056;SDS011;36875;49.468;11.200;2023-08-30T23:46:55;3.08;;;1.67;;
50056;SDS011;36875;49.468;11.200;2023-08-30T23:49:21;3.40;;;1.70;;
50056;SDS011;36875;49.468;11.200;2023-08-30T23:51:47;2.50;;;1.50;;
50056;SDS011;36875;49.468;11.200;2023-08-30T23:54:12;2.10;;;1.65;;
50056;SDS011;36875;49.468;11.200;2023-08-30T23:56:38;4.10;;;1.65;;
50056;SDS011;36875;49.468;11.200;2023-08-30T23:59:03;2.65;;;1.55;;
